University of Wyoming, Wyoming
Current Conditions -  °F | °C
As of 7:53 AM on Friday 24 Oct 2014 (Local Time) from KLAR Reporting Station
Clear Clear  
Wind Chill:   Ceiling: Unl
Heat Index:   Visibility: 10mi
Dew Point: -3°   Wind: 14mph
Humidity: 43%   Direction: 220°SW
Pressure: 30.25"   Gusts: NA
Location:  41.4218°N, 105.605°W
Report Text: KLAR 241353Z AUTO 22012KT 10SM CLR 09/M03 A3025 RMK AO2 SLP173 T00941028
Loading
Personal Weather Stations






























Interactive Weather Map
Tropical Storm Tracking
New forecast layout! Learn more

10-Day Weather Forecast

Advertisements
Track Severe Weather on mobile